sensor_id;sensor_type;location;lat;lon;timestamp;P1;durP1;ratioP1;P2;durP2;ratioP2
3341;SDS011;1684;50.748;6.154;2023-03-23T00:00:52;5.90;;;3.83;;
3341;SDS011;1684;50.748;6.154;2023-03-23T00:03:21;5.87;;;3.97;;
3341;SDS011;1684;50.748;6.154;2023-03-23T00:05:50;5.47;;;3.93;;
3341;SDS011;1684;50.748;6.154;2023-03-23T00:08:17;4.70;;;2.70;;
3341;SDS011;1684;50.748;6.154;2023-03-23T00:10:47;7.50;;;3.30;;
3341;SDS011;1684;50.748;6.154;2023-03-23T00:13:17;6.20;;;4.23;;
3341;SDS011;1684;50.748;6.154;2023-03-23T00:15:45;9.00;;;3.47;;
3341;SDS011;1684;50.748;6.154;2023-03-23T00:18:14;6.87;;;4.00;;
3341;SDS011;1684;50.748;6.154;2023-03-23T00:20:48;5.40;;;3.50;;
3341;SDS011;1684;50.748;6.154;2023-03-23T00:23:16;8.33;;;3.50;;
3341;SDS011;1684;50.748;6.154;2023-03-23T00:25:48;6.53;;;3.60;;
3341;SDS011;1684;50.748;6.154;2023-03-23T00:28:18;5.27;;;3.30;;
3341;SDS011;1684;50.748;6.154;2023-03-23T00:30:53;5.63;;;3.73;;
3341;SDS011;1684;50.748;6.154;2023-03-23T00:33:22;7.90;;;4.10;;
3341;SDS011;1684;50.748;6.154;2023-03-23T00:35:50;6.30;;;3.53;;
3341;SDS011;1684;50.748;6.154;2023-03-23T00:38:19;7.23;;;3.73;;
3341;SDS011;1684;50.748;6.154;2023-03-23T00:40:47;6.80;;;4.00;;
3341;SDS011;1684;50.748;6.154;2023-03-23T00:43:14;7.33;;;3.30;;
3341;SDS011;1684;50.748;6.154;2023-03-23T00:45:42;7.40;;;2.90;;
3341;SDS011;1684;50.748;6.154;2023-03-23T00:48:14;12.03;;;4.40;;
3341;SDS011;1684;50.748;6.154;2023-03-23T00:50:42;6.33;;;3.80;;
3341;SDS011;1684;50.748;6.154;2023-03-23T00:53:10;7.90;;;4.43;;
3341;SDS011;1684;50.748;6.154;2023-03-23T00:55:39;5.60;;;3.53;;
3341;SDS011;1684;50.748;6.154;2023-03-23T00:58:06;6.20;;;4.10;;
3341;SDS011;1684;50.748;6.154;2023-03-23T01:00:34;6.00;;;3.60;;
3341;SDS011;1684;50.748;6.154;2023-03-23T01:03:01;7.23;;;4.40;;
3341;SDS011;1684;50.748;6.154;2023-03-23T01:05:28;4.77;;;3.60;;
3341;SDS011;1684;50.748;6.154;2023-03-23T01:07:57;12.73;;;4.30;;
3341;SDS011;1684;50.748;6.154;2023-03-23T01:10:25;6.10;;;4.10;;
3341;SDS011;1684;50.748;6.154;2023-03-23T01:12:53;6.67;;;4.30;;
3341;SDS011;1684;50.748;6.154;2023-03-23T01:15:20;4.83;;;3.30;;
3341;SDS011;1684;50.748;6.154;2023-03-23T01:17:48;5.80;;;3.57;;
3341;SDS011;1684;50.748;6.154;2023-03-23T01:20:15;6.20;;;3.70;;
3341;SDS011;1684;50.748;6.154;2023-03-23T01:22:42;5.10;;;3.27;;
3341;SDS011;1684;50.748;6.154;2023-03-23T01:25:10;6.40;;;3.70;;
3341;SDS011;1684;50.748;6.154;2023-03-23T01:27:39;7.90;;;4.03;;
3341;SDS011;1684;50.748;6.154;2023-03-23T01:30:07;5.47;;;3.80;;
3341;SDS011;1684;50.748;6.154;2023-03-23T01:32:35;6.53;;;3.63;;
3341;SDS011;1684;50.748;6.154;2023-03-23T01:35:02;7.37;;;4.00;;
3341;SDS011;1684;50.748;6.154;2023-03-23T01:37:29;5.77;;;3.73;;
3341;SDS011;1684;50.748;6.154;2023-03-23T01:39:57;6.70;;;4.07;;
3341;SDS011;1684;50.748;6.154;2023-03-23T01:42:25;7.10;;;4.10;;
3341;SDS011;1684;50.748;6.154;2023-03-23T01:47:42;8.03;;;4.10;;
3341;SDS011;1684;50.748;6.154;2023-03-23T01:50:10;6.07;;;3.63;;
3341;SDS011;1684;50.748;6.154;2023-03-23T01:52:37;5.60;;;3.70;;
3341;SDS011;1684;50.748;6.154;2023-03-23T01:55:04;6.20;;;3.00;;
3341;SDS011;1684;50.748;6.154;2023-03-23T01:57:32;5.37;;;3.40;;
3341;SDS011;1684;50.748;6.154;2023-03-23T02:00:01;5.47;;;3.40;;
3341;SDS011;1684;50.748;6.154;2023-03-23T02:02:33;5.70;;;3.50;;
3341;SDS011;1684;50.748;6.154;2023-03-23T02:05:02;5.27;;;3.63;;
3341;SDS011;1684;50.748;6.154;2023-03-23T02:07:35;5.57;;;3.37;;
3341;SDS011;1684;50.748;6.154;2023-03-23T02:10:02;8.30;;;3.90;;
3341;SDS011;1684;50.748;6.154;2023-03-23T02:12:30;5.83;;;3.13;;
3341;SDS011;1684;50.748;6.154;2023-03-23T02:14:57;4.70;;;3.10;;
3341;SDS011;1684;50.748;6.154;2023-03-23T02:17:25;4.70;;;3.70;;
3341;SDS011;1684;50.748;6.154;2023-03-23T02:20:04;3.30;;;2.43;;
3341;SDS011;1684;50.748;6.154;2023-03-23T02:22:42;4.57;;;2.50;;
3341;SDS011;1684;50.748;6.154;2023-03-23T02:28:24;5.90;;;2.70;;
3341;SDS011;1684;50.748;6.154;2023-03-23T02:31:01;4.30;;;2.57;;
3341;SDS011;1684;50.748;6.154;2023-03-23T02:33:37;4.93;;;2.90;;
3341;SDS011;1684;50.748;6.154;2023-03-23T02:36:11;4.40;;;2.70;;
3341;SDS011;1684;50.748;6.154;2023-03-23T02:38:41;4.93;;;2.47;;
3341;SDS011;1684;50.748;6.154;2023-03-23T02:41:10;5.77;;;3.33;;
3341;SDS011;1684;50.748;6.154;2023-03-23T02:43:39;6.80;;;3.23;;
3341;SDS011;1684;50.748;6.154;2023-03-23T02:46:07;4.53;;;3.20;;
3341;SDS011;1684;50.748;6.154;2023-03-23T02:48:35;5.30;;;3.30;;
3341;SDS011;1684;50.748;6.154;2023-03-23T02:51:04;4.20;;;3.03;;
3341;SDS011;1684;50.748;6.154;2023-03-23T02:53:33;6.00;;;4.10;;
3341;SDS011;1684;50.748;6.154;2023-03-23T02:56:01;4.97;;;3.20;;
3341;SDS011;1684;50.748;6.154;2023-03-23T02:58:30;5.50;;;3.40;;
3341;SDS011;1684;50.748;6.154;2023-03-23T03:00:57;5.87;;;2.70;;
3341;SDS011;1684;50.748;6.154;2023-03-23T03:03:26;4.70;;;2.70;;
3341;SDS011;1684;50.748;6.154;2023-03-23T03:05:56;5.53;;;3.53;;
3341;SDS011;1684;50.748;6.154;2023-03-23T03:08:28;4.77;;;3.00;;
3341;SDS011;1684;50.748;6.154;2023-03-23T03:10:57;4.90;;;2.63;;
3341;SDS011;1684;50.748;6.154;2023-03-23T03:13:30;6.80;;;3.77;;
3341;SDS011;1684;50.748;6.154;2023-03-23T03:15:59;7.30;;;3.07;;
3341;SDS011;1684;50.748;6.154;2023-03-23T03:18:28;5.40;;;3.47;;
3341;SDS011;1684;50.748;6.154;2023-03-23T03:20:58;4.93;;;3.40;;
3341;SDS011;1684;50.748;6.154;2023-03-23T03:23:28;5.03;;;2.90;;
3341;SDS011;1684;50.748;6.154;2023-03-23T03:25:55;5.23;;;3.43;;
3341;SDS011;1684;50.748;6.154;2023-03-23T03:28:24;5.90;;;4.10;;
3341;SDS011;1684;50.748;6.154;2023-03-23T03:30:53;5.40;;;3.13;;
3341;SDS011;1684;50.748;6.154;2023-03-23T03:33:21;8.63;;;3.30;;
3341;SDS011;1684;50.748;6.154;2023-03-23T03:35:50;6.27;;;4.10;;
3341;SDS011;1684;50.748;6.154;2023-03-23T03:38:18;6.40;;;3.60;;
3341;SDS011;1684;50.748;6.154;2023-03-23T03:40:47;5.27;;;3.40;;
3341;SDS011;1684;50.748;6.154;2023-03-23T03:43:14;4.67;;;2.83;;
3341;SDS011;1684;50.748;6.154;2023-03-23T03:45:41;5.43;;;3.60;;
3341;SDS011;1684;50.748;6.154;2023-03-23T03:48:09;6.70;;;3.77;;
3341;SDS011;1684;50.748;6.154;2023-03-23T03:50:37;8.20;;;3.47;;
3341;SDS011;1684;50.748;6.154;2023-03-23T03:53:04;6.20;;;4.10;;
3341;SDS011;1684;50.748;6.154;2023-03-23T03:55:32;4.93;;;3.33;;
3341;SDS011;1684;50.748;6.154;2023-03-23T03:58:01;5.60;;;3.73;;
3341;SDS011;1684;50.748;6.154;2023-03-23T04:00:29;5.40;;;3.40;;
3341;SDS011;1684;50.748;6.154;2023-03-23T04:02:57;6.97;;;4.10;;
3341;SDS011;1684;50.748;6.154;2023-03-23T04:05:25;6.23;;;4.13;;
3341;SDS011;1684;50.748;6.154;2023-03-23T04:07:54;5.93;;;4.03;;
3341;SDS011;1684;50.748;6.154;2023-03-23T04:10:26;8.73;;;4.30;;
3341;SDS011;1684;50.748;6.154;2023-03-23T04:12:54;6.00;;;3.67;;
3341;SDS011;1684;50.748;6.154;2023-03-23T04:15:23;7.23;;;4.50;;
3341;SDS011;1684;50.748;6.154;2023-03-23T04:17:50;8.93;;;4.23;;
3341;SDS011;1684;50.748;6.154;2023-03-23T04:20:29;9.23;;;3.77;;
3341;SDS011;1684;50.748;6.154;2023-03-23T04:22:56;5.63;;;3.13;;
3341;SDS011;1684;50.748;6.154;2023-03-23T04:25:25;9.77;;;3.63;;
3341;SDS011;1684;50.748;6.154;2023-03-23T04:27:53;6.77;;;4.27;;
3341;SDS011;1684;50.748;6.154;2023-03-23T04:30:20;6.20;;;3.40;;
3341;SDS011;1684;50.748;6.154;2023-03-23T04:32:49;6.03;;;4.03;;
3341;SDS011;1684;50.748;6.154;2023-03-23T04:35:20;4.43;;;2.57;;
3341;SDS011;1684;50.748;6.154;2023-03-23T04:37:49;5.47;;;3.53;;
3341;SDS011;1684;50.748;6.154;2023-03-23T04:40:17;8.13;;;3.93;;
3341;SDS011;1684;50.748;6.154;2023-03-23T04:42:44;5.30;;;3.20;;
3341;SDS011;1684;50.748;6.154;2023-03-23T04:45:13;4.50;;;2.70;;
3341;SDS011;1684;50.748;6.154;2023-03-23T04:47:40;8.40;;;3.57;;
3341;SDS011;1684;50.748;6.154;2023-03-23T04:50:19;8.03;;;3.33;;
3341;SDS011;1684;50.748;6.154;2023-03-23T04:52:49;6.37;;;2.80;;
3341;SDS011;1684;50.748;6.154;2023-03-23T04:55:16;4.90;;;2.50;;
3341;SDS011;1684;50.748;6.154;2023-03-23T04:57:44;5.30;;;2.60;;
3341;SDS011;1684;50.748;6.154;2023-03-23T05:00:12;9.37;;;2.83;;
3341;SDS011;1684;50.748;6.154;2023-03-23T05:02:42;8.70;;;3.00;;
3341;SDS011;1684;50.748;6.154;2023-03-23T05:05:10;4.90;;;3.00;;
3341;SDS011;1684;50.748;6.154;2023-03-23T05:07:39;7.77;;;3.60;;
3341;SDS011;1684;50.748;6.154;2023-03-23T05:10:07;4.23;;;2.70;;
3341;SDS011;1684;50.748;6.154;2023-03-23T05:12:35;8.43;;;3.00;;
3341;SDS011;1684;50.748;6.154;2023-03-23T05:15:03;6.67;;;3.17;;
3341;SDS011;1684;50.748;6.154;2023-03-23T05:17:30;5.53;;;2.97;;
3341;SDS011;1684;50.748;6.154;2023-03-23T05:19:58;4.77;;;2.80;;
3341;SDS011;1684;50.748;6.154;2023-03-23T05:22:26;5.20;;;3.30;;
3341;SDS011;1684;50.748;6.154;2023-03-23T05:24:55;9.23;;;2.43;;
3341;SDS011;1684;50.748;6.154;2023-03-23T05:27:22;6.93;;;3.17;;
3341;SDS011;1684;50.748;6.154;2023-03-23T05:29:55;8.63;;;3.17;;
3341;SDS011;1684;50.748;6.154;2023-03-23T05:32:23;7.00;;;2.63;;
3341;SDS011;1684;50.748;6.154;2023-03-23T05:34:54;5.67;;;2.80;;
3341;SDS011;1684;50.748;6.154;2023-03-23T05:37:21;4.53;;;2.57;;
3341;SDS011;1684;50.748;6.154;2023-03-23T05:39:48;4.90;;;2.67;;
3341;SDS011;1684;50.748;6.154;2023-03-23T05:42:19;4.20;;;2.90;;
3341;SDS011;1684;50.748;6.154;2023-03-23T05:44:47;5.53;;;2.47;;
3341;SDS011;1684;50.748;6.154;2023-03-23T05:47:14;4.83;;;2.80;;
3341;SDS011;1684;50.748;6.154;2023-03-23T05:49:42;5.03;;;2.63;;
3341;SDS011;1684;50.748;6.154;2023-03-23T05:52:09;6.13;;;2.80;;
3341;SDS011;1684;50.748;6.154;2023-03-23T05:54:36;7.60;;;2.67;;
3341;SDS011;1684;50.748;6.154;2023-03-23T05:57:03;4.77;;;2.23;;
3341;SDS011;1684;50.748;6.154;2023-03-23T05:59:32;9.13;;;2.93;;
3341;SDS011;1684;50.748;6.154;2023-03-23T06:01:59;6.67;;;2.33;;
3341;SDS011;1684;50.748;6.154;2023-03-23T06:04:26;6.07;;;2.30;;
3341;SDS011;1684;50.748;6.154;2023-03-23T06:06:54;6.73;;;2.43;;
3341;SDS011;1684;50.748;6.154;2023-03-23T06:09:21;8.00;;;2.80;;
3341;SDS011;1684;50.748;6.154;2023-03-23T06:11:50;7.47;;;3.07;;
3341;SDS011;1684;50.748;6.154;2023-03-23T06:14:17;5.43;;;3.17;;
3341;SDS011;1684;50.748;6.154;2023-03-23T06:16:46;7.97;;;2.40;;
3341;SDS011;1684;50.748;6.154;2023-03-23T06:19:13;8.57;;;2.70;;
3341;SDS011;1684;50.748;6.154;2023-03-23T06:21:40;4.00;;;2.57;;
3341;SDS011;1684;50.748;6.154;2023-03-23T06:24:08;6.70;;;4.03;;
3341;SDS011;1684;50.748;6.154;2023-03-23T06:26:37;6.77;;;2.80;;
3341;SDS011;1684;50.748;6.154;2023-03-23T06:29:06;6.33;;;2.80;;
3341;SDS011;1684;50.748;6.154;2023-03-23T06:31:36;5.63;;;1.87;;
3341;SDS011;1684;50.748;6.154;2023-03-23T06:34:06;5.37;;;2.47;;
3341;SDS011;1684;50.748;6.154;2023-03-23T06:36:33;7.27;;;2.20;;
3341;SDS011;1684;50.748;6.154;2023-03-23T06:39:01;4.40;;;2.13;;
3341;SDS011;1684;50.748;6.154;2023-03-23T06:41:29;5.90;;;2.50;;
3341;SDS011;1684;50.748;6.154;2023-03-23T06:43:56;10.63;;;3.47;;
3341;SDS011;1684;50.748;6.154;2023-03-23T06:46:24;3.87;;;2.17;;
3341;SDS011;1684;50.748;6.154;2023-03-23T06:48:51;5.07;;;2.83;;
3341;SDS011;1684;50.748;6.154;2023-03-23T06:51:20;5.63;;;2.23;;
3341;SDS011;1684;50.748;6.154;2023-03-23T06:53:47;4.10;;;2.20;;
3341;SDS011;1684;50.748;6.154;2023-03-23T06:56:15;9.10;;;2.17;;
3341;SDS011;1684;50.748;6.154;2023-03-23T06:58:42;6.30;;;3.10;;
3341;SDS011;1684;50.748;6.154;2023-03-23T07:01:10;4.10;;;2.00;;
3341;SDS011;1684;50.748;6.154;2023-03-23T07:03:40;6.73;;;2.73;;
3341;SDS011;1684;50.748;6.154;2023-03-23T07:06:08;5.60;;;2.67;;
3341;SDS011;1684;50.748;6.154;2023-03-23T07:08:36;4.90;;;2.37;;
3341;SDS011;1684;50.748;6.154;2023-03-23T07:11:04;3.77;;;2.27;;
3341;SDS011;1684;50.748;6.154;2023-03-23T07:13:31;5.17;;;2.47;;
3341;SDS011;1684;50.748;6.154;2023-03-23T07:15:59;6.43;;;2.93;;
3341;SDS011;1684;50.748;6.154;2023-03-23T07:18:26;5.27;;;2.73;;
3341;SDS011;1684;50.748;6.154;2023-03-23T07:20:54;4.40;;;2.30;;
3341;SDS011;1684;50.748;6.154;2023-03-23T07:23:21;9.00;;;2.60;;
3341;SDS011;1684;50.748;6.154;2023-03-23T07:25:50;7.97;;;2.57;;
3341;SDS011;1684;50.748;6.154;2023-03-23T07:28:18;8.50;;;2.40;;
3341;SDS011;1684;50.748;6.154;2023-03-23T07:30:46;10.37;;;3.13;;
3341;SDS011;1684;50.748;6.154;2023-03-23T07:33:13;5.93;;;2.43;;
3341;SDS011;1684;50.748;6.154;2023-03-23T07:35:40;5.60;;;2.40;;
3341;SDS011;1684;50.748;6.154;2023-03-23T07:38:07;3.90;;;1.77;;
3341;SDS011;1684;50.748;6.154;2023-03-23T07:40:35;7.57;;;2.33;;
3341;SDS011;1684;50.748;6.154;2023-03-23T07:43:04;7.27;;;2.33;;
3341;SDS011;1684;50.748;6.154;2023-03-23T07:45:31;4.33;;;2.50;;
3341;SDS011;1684;50.748;6.154;2023-03-23T07:47:58;5.90;;;2.57;;
3341;SDS011;1684;50.748;6.154;2023-03-23T07:50:26;7.60;;;2.53;;
3341;SDS011;1684;50.748;6.154;2023-03-23T07:52:54;10.03;;;2.07;;
3341;SDS011;1684;50.748;6.154;2023-03-23T07:55:22;5.23;;;2.50;;
3341;SDS011;1684;50.748;6.154;2023-03-23T07:57:50;5.30;;;1.80;;
3341;SDS011;1684;50.748;6.154;2023-03-23T08:00:20;3.90;;;2.20;;
3341;SDS011;1684;50.748;6.154;2023-03-23T08:02:51;4.30;;;1.80;;
3341;SDS011;1684;50.748;6.154;2023-03-23T08:05:18;8.90;;;2.30;;
3341;SDS011;1684;50.748;6.154;2023-03-23T08:07:47;3.70;;;1.70;;
3341;SDS011;1684;50.748;6.154;2023-03-23T08:10:15;3.90;;;1.90;;
3341;SDS011;1684;50.748;6.154;2023-03-23T08:12:43;6.60;;;2.77;;
3341;SDS011;1684;50.748;6.154;2023-03-23T08:15:13;4.47;;;2.27;;
3341;SDS011;1684;50.748;6.154;2023-03-23T08:17:42;6.53;;;2.10;;
3341;SDS011;1684;50.748;6.154;2023-03-23T08:20:10;6.40;;;2.10;;
3341;SDS011;1684;50.748;6.154;2023-03-23T08:22:38;3.67;;;2.10;;
3341;SDS011;1684;50.748;6.154;2023-03-23T08:25:07;4.67;;;2.43;;
3341;SDS011;1684;50.748;6.154;2023-03-23T08:27:35;7.50;;;2.20;;
3341;SDS011;1684;50.748;6.154;2023-03-23T08:30:02;6.33;;;2.30;;
3341;SDS011;1684;50.748;6.154;2023-03-23T08:32:32;8.07;;;2.20;;
3341;SDS011;1684;50.748;6.154;2023-03-23T08:35:00;4.90;;;2.30;;
3341;SDS011;1684;50.748;6.154;2023-03-23T08:37:28;6.07;;;2.17;;
3341;SDS011;1684;50.748;6.154;2023-03-23T08:39:55;6.00;;;2.60;;
3341;SDS011;1684;50.748;6.154;2023-03-23T08:42:23;7.37;;;2.13;;
3341;SDS011;1684;50.748;6.154;2023-03-23T08:44:50;7.27;;;2.13;;
3341;SDS011;1684;50.748;6.154;2023-03-23T08:47:18;3.93;;;2.00;;
3341;SDS011;1684;50.748;6.154;2023-03-23T08:49:45;5.67;;;2.40;;
3341;SDS011;1684;50.748;6.154;2023-03-23T08:52:19;4.00;;;1.90;;
3341;SDS011;1684;50.748;6.154;2023-03-23T08:54:46;5.53;;;2.30;;
3341;SDS011;1684;50.748;6.154;2023-03-23T08:57:13;6.87;;;2.20;;
3341;SDS011;1684;50.748;6.154;2023-03-23T08:59:41;4.80;;;2.07;;
3341;SDS011;1684;50.748;6.154;2023-03-23T09:02:09;9.50;;;2.50;;
3341;SDS011;1684;50.748;6.154;2023-03-23T09:04:38;4.93;;;2.13;;
3341;SDS011;1684;50.748;6.154;2023-03-23T09:07:07;4.37;;;2.00;;
3341;SDS011;1684;50.748;6.154;2023-03-23T09:09:37;7.87;;;3.80;;
3341;SDS011;1684;50.748;6.154;2023-03-23T09:12:05;5.93;;;2.13;;
3341;SDS011;1684;50.748;6.154;2023-03-23T09:14:33;4.47;;;1.80;;
3341;SDS011;1684;50.748;6.154;2023-03-23T09:17:00;7.90;;;2.00;;
3341;SDS011;1684;50.748;6.154;2023-03-23T09:19:28;5.13;;;1.77;;
3341;SDS011;1684;50.748;6.154;2023-03-23T09:21:56;9.47;;;2.30;;
3341;SDS011;1684;50.748;6.154;2023-03-23T09:24:23;4.90;;;1.60;;
3341;SDS011;1684;50.748;6.154;2023-03-23T09:26:51;3.80;;;1.90;;
3341;SDS011;1684;50.748;6.154;2023-03-23T09:29:19;3.53;;;1.33;;
3341;SDS011;1684;50.748;6.154;2023-03-23T09:31:46;8.03;;;2.23;;
3341;SDS011;1684;50.748;6.154;2023-03-23T09:34:13;4.57;;;2.10;;
3341;SDS011;1684;50.748;6.154;2023-03-23T09:36:42;4.10;;;1.63;;
3341;SDS011;1684;50.748;6.154;2023-03-23T09:39:09;7.60;;;2.03;;
3341;SDS011;1684;50.748;6.154;2023-03-23T09:41:50;3.40;;;1.60;;
3341;SDS011;1684;50.748;6.154;2023-03-23T09:44:24;4.80;;;1.37;;
3341;SDS011;1684;50.748;6.154;2023-03-23T09:46:57;4.10;;;1.50;;
3341;SDS011;1684;50.748;6.154;2023-03-23T09:49:27;4.47;;;2.20;;
3341;SDS011;1684;50.748;6.154;2023-03-23T09:51:55;2.93;;;1.00;;
3341;SDS011;1684;50.748;6.154;2023-03-23T09:54:25;5.83;;;1.57;;
3341;SDS011;1684;50.748;6.154;2023-03-23T09:56:54;4.00;;;1.57;;
3341;SDS011;1684;50.748;6.154;2023-03-23T09:59:24;6.93;;;1.73;;
3341;SDS011;1684;50.748;6.154;2023-03-23T10:01:54;6.47;;;1.73;;
3341;SDS011;1684;50.748;6.154;2023-03-23T10:04:28;5.60;;;1.53;;
3341;SDS011;1684;50.748;6.154;2023-03-23T10:06:58;5.30;;;1.47;;
3341;SDS011;1684;50.748;6.154;2023-03-23T10:09:26;3.60;;;1.77;;
3341;SDS011;1684;50.748;6.154;2023-03-23T10:11:58;4.60;;;1.80;;
3341;SDS011;1684;50.748;6.154;2023-03-23T10:14:40;3.90;;;1.53;;
3341;SDS011;1684;50.748;6.154;2023-03-23T10:17:13;3.77;;;1.87;;
3341;SDS011;1684;50.748;6.154;2023-03-23T10:19:42;5.53;;;2.30;;
3341;SDS011;1684;50.748;6.154;2023-03-23T10:22:12;4.73;;;2.23;;
3341;SDS011;1684;50.748;6.154;2023-03-23T10:24:42;5.50;;;1.90;;
3341;SDS011;1684;50.748;6.154;2023-03-23T10:27:15;4.87;;;1.50;;
3341;SDS011;1684;50.748;6.154;2023-03-23T10:29:48;3.47;;;1.60;;
3341;SDS011;1684;50.748;6.154;2023-03-23T10:32:18;4.63;;;1.70;;
3341;SDS011;1684;50.748;6.154;2023-03-23T10:34:47;5.47;;;1.73;;
3341;SDS011;1684;50.748;6.154;2023-03-23T10:37:17;5.20;;;2.60;;
3341;SDS011;1684;50.748;6.154;2023-03-23T10:39:46;6.63;;;2.33;;
3341;SDS011;1684;50.748;6.154;2023-03-23T10:42:21;3.93;;;2.33;;
3341;SDS011;1684;50.748;6.154;2023-03-23T10:44:50;5.27;;;2.20;;
3341;SDS011;1684;50.748;6.154;2023-03-23T10:47:18;3.30;;;1.80;;
3341;SDS011;1684;50.748;6.154;2023-03-23T10:49:47;3.23;;;1.63;;
3341;SDS011;1684;50.748;6.154;2023-03-23T10:52:24;3.63;;;1.63;;
3341;SDS011;1684;50.748;6.154;2023-03-23T10:54:55;4.40;;;1.47;;
3341;SDS011;1684;50.748;6.154;2023-03-23T10:57:23;3.90;;;1.40;;
3341;SDS011;1684;50.748;6.154;2023-03-23T10:59:57;4.20;;;1.27;;
3341;SDS011;1684;50.748;6.154;2023-03-23T11:02:24;4.10;;;1.50;;
3341;SDS011;1684;50.748;6.154;2023-03-23T11:04:59;4.47;;;1.60;;
3341;SDS011;1684;50.748;6.154;2023-03-23T11:07:29;3.37;;;1.27;;
3341;SDS011;1684;50.748;6.154;2023-03-23T11:10:07;5.80;;;1.63;;
3341;SDS011;1684;50.748;6.154;2023-03-23T11:12:34;4.93;;;1.40;;
3341;SDS011;1684;50.748;6.154;2023-03-23T11:18:02;3.87;;;1.43;;
3341;SDS011;1684;50.748;6.154;2023-03-23T11:20:33;4.10;;;1.50;;
3341;SDS011;1684;50.748;6.154;2023-03-23T11:23:01;3.63;;;1.73;;
3341;SDS011;1684;50.748;6.154;2023-03-23T11:25:34;6.60;;;1.83;;
3341;SDS011;1684;50.748;6.154;2023-03-23T11:28:13;3.73;;;1.53;;
3341;SDS011;1684;50.748;6.154;2023-03-23T11:30:42;3.90;;;1.80;;
3341;SDS011;1684;50.748;6.154;2023-03-23T11:33:10;6.57;;;1.67;;
3341;SDS011;1684;50.748;6.154;2023-03-23T11:35:42;4.97;;;2.13;;
3341;SDS011;1684;50.748;6.154;2023-03-23T11:38:14;4.23;;;1.80;;
3341;SDS011;1684;50.748;6.154;2023-03-23T11:40:44;6.67;;;2.57;;
3341;SDS011;1684;50.748;6.154;2023-03-23T11:43:14;10.50;;;2.97;;
3341;SDS011;1684;50.748;6.154;2023-03-23T11:45:47;4.30;;;1.53;;
3341;SDS011;1684;50.748;6.154;2023-03-23T11:48:18;3.63;;;2.10;;
3341;SDS011;1684;50.748;6.154;2023-03-23T11:50:48;4.20;;;2.43;;
3341;SDS011;1684;50.748;6.154;2023-03-23T11:53:20;6.10;;;2.40;;
3341;SDS011;1684;50.748;6.154;2023-03-23T11:55:55;8.00;;;2.70;;
3341;SDS011;1684;50.748;6.154;2023-03-23T11:58:22;6.30;;;2.27;;
3341;SDS011;1684;50.748;6.154;2023-03-23T12:00:55;4.60;;;1.93;;
3341;SDS011;1684;50.748;6.154;2023-03-23T12:03:24;3.73;;;2.50;;
3341;SDS011;1684;50.748;6.154;2023-03-23T12:05:55;5.13;;;2.50;;
3341;SDS011;1684;50.748;6.154;2023-03-23T12:08:30;6.63;;;2.43;;
3341;SDS011;1684;50.748;6.154;2023-03-23T12:11:01;3.70;;;2.27;;
3341;SDS011;1684;50.748;6.154;2023-03-23T12:13:35;4.33;;;2.17;;
3341;SDS011;1684;50.748;6.154;2023-03-23T12:16:17;4.97;;;1.97;;
3341;SDS011;1684;50.748;6.154;2023-03-23T12:18:51;5.40;;;1.80;;
3341;SDS011;1684;50.748;6.154;2023-03-23T12:21:24;6.57;;;1.63;;
3341;SDS011;1684;50.748;6.154;2023-03-23T12:23:57;3.80;;;1.80;;
3341;SDS011;1684;50.748;6.154;2023-03-23T12:26:26;5.27;;;2.20;;
3341;SDS011;1684;50.748;6.154;2023-03-23T12:31:56;3.87;;;1.70;;
3341;SDS011;1684;50.748;6.154;2023-03-23T12:34:30;5.60;;;2.03;;
3341;SDS011;1684;50.748;6.154;2023-03-23T12:37:08;4.63;;;2.23;;
3341;SDS011;1684;50.748;6.154;2023-03-23T12:42:34;5.00;;;2.30;;
3341;SDS011;1684;50.748;6.154;2023-03-23T12:45:11;4.00;;;2.10;;
3341;SDS011;1684;50.748;6.154;2023-03-23T12:47:44;4.00;;;2.00;;
3341;SDS011;1684;50.748;6.154;2023-03-23T12:50:15;7.20;;;2.70;;
3341;SDS011;1684;50.748;6.154;2023-03-23T12:52:45;7.37;;;2.40;;
3341;SDS011;1684;50.748;6.154;2023-03-23T12:55:15;7.53;;;2.73;;
3341;SDS011;1684;50.748;6.154;2023-03-23T12:57:45;6.87;;;2.77;;
3341;SDS011;1684;50.748;6.154;2023-03-23T13:00:17;8.83;;;3.03;;
3341;SDS011;1684;50.748;6.154;2023-03-23T13:02:47;7.03;;;2.07;;
3341;SDS011;1684;50.748;6.154;2023-03-23T13:05:27;5.70;;;2.37;;
3341;SDS011;1684;50.748;6.154;2023-03-23T13:07:57;9.23;;;2.60;;
3341;SDS011;1684;50.748;6.154;2023-03-23T13:10:28;4.60;;;2.40;;
3341;SDS011;1684;50.748;6.154;2023-03-23T13:12:57;7.00;;;2.40;;
3341;SDS011;1684;50.748;6.154;2023-03-23T13:15:34;5.73;;;2.40;;
3341;SDS011;1684;50.748;6.154;2023-03-23T13:18:07;5.80;;;3.00;;
3341;SDS011;1684;50.748;6.154;2023-03-23T13:20:43;6.33;;;2.20;;
3341;SDS011;1684;50.748;6.154;2023-03-23T13:23:14;8.90;;;4.77;;
3341;SDS011;1684;50.748;6.154;2023-03-23T13:25:54;7.17;;;2.73;;
3341;SDS011;1684;50.748;6.154;2023-03-23T13:28:23;5.03;;;2.63;;
3341;SDS011;1684;50.748;6.154;2023-03-23T13:30:54;8.13;;;3.03;;
3341;SDS011;1684;50.748;6.154;2023-03-23T13:33:22;8.47;;;2.80;;
3341;SDS011;1684;50.748;6.154;2023-03-23T13:35:50;13.23;;;3.20;;
3341;SDS011;1684;50.748;6.154;2023-03-23T13:38:19;5.63;;;2.40;;
3341;SDS011;1684;50.748;6.154;2023-03-23T13:40:48;9.77;;;3.37;;
3341;SDS011;1684;50.748;6.154;2023-03-23T13:43:24;5.23;;;2.90;;
3341;SDS011;1684;50.748;6.154;2023-03-23T13:45:52;7.03;;;2.60;;
3341;SDS011;1684;50.748;6.154;2023-03-23T13:48:22;5.60;;;2.73;;
3341;SDS011;1684;50.748;6.154;2023-03-23T13:50:52;7.73;;;3.33;;
3341;SDS011;1684;50.748;6.154;2023-03-23T13:53:25;6.87;;;2.67;;
3341;SDS011;1684;50.748;6.154;2023-03-23T13:56:05;6.40;;;2.60;;
3341;SDS011;1684;50.748;6.154;2023-03-23T13:58:43;5.10;;;2.33;;
3341;SDS011;1684;50.748;6.154;2023-03-23T14:01:12;8.23;;;2.60;;
3341;SDS011;1684;50.748;6.154;2023-03-23T14:03:41;4.93;;;1.87;;
3341;SDS011;1684;50.748;6.154;2023-03-23T14:06:12;7.10;;;2.97;;
3341;SDS011;1684;50.748;6.154;2023-03-23T14:08:41;4.73;;;2.20;;
3341;SDS011;1684;50.748;6.154;2023-03-23T14:11:10;6.70;;;2.10;;
3341;SDS011;1684;50.748;6.154;2023-03-23T14:13:40;7.77;;;2.40;;
3341;SDS011;1684;50.748;6.154;2023-03-23T14:16:13;4.43;;;2.00;;
3341;SDS011;1684;50.748;6.154;2023-03-23T14:18:42;6.47;;;2.23;;
3341;SDS011;1684;50.748;6.154;2023-03-23T14:21:16;5.43;;;2.47;;
3341;SDS011;1684;50.748;6.154;2023-03-23T14:23:44;7.87;;;2.90;;
3341;SDS011;1684;50.748;6.154;2023-03-23T14:26:12;5.70;;;2.53;;
3341;SDS011;1684;50.748;6.154;2023-03-23T14:28:40;10.27;;;4.10;;
3341;SDS011;1684;50.748;6.154;2023-03-23T14:31:12;6.40;;;2.53;;
3341;SDS011;1684;50.748;6.154;2023-03-23T14:33:41;8.77;;;3.03;;
3341;SDS011;1684;50.748;6.154;2023-03-23T14:36:09;5.30;;;2.30;;
3341;SDS011;1684;50.748;6.154;2023-03-23T14:38:37;4.67;;;2.87;;
3341;SDS011;1684;50.748;6.154;2023-03-23T14:41:05;6.60;;;2.43;;
3341;SDS011;1684;50.748;6.154;2023-03-23T14:43:33;3.80;;;2.23;;
3341;SDS011;1684;50.748;6.154;2023-03-23T14:46:02;6.27;;;2.30;;
3341;SDS011;1684;50.748;6.154;2023-03-23T14:48:31;5.30;;;2.57;;
3341;SDS011;1684;50.748;6.154;2023-03-23T14:50:59;6.50;;;2.60;;
3341;SDS011;1684;50.748;6.154;2023-03-23T14:53:30;7.30;;;3.37;;
3341;SDS011;1684;50.748;6.154;2023-03-23T14:56:00;6.17;;;2.90;;
3341;SDS011;1684;50.748;6.154;2023-03-23T14:58:29;5.93;;;2.30;;
3341;SDS011;1684;50.748;6.154;2023-03-23T15:00:58;6.90;;;2.37;;
3341;SDS011;1684;50.748;6.154;2023-03-23T15:03:26;6.30;;;3.23;;
3341;SDS011;1684;50.748;6.154;2023-03-23T15:05:54;5.30;;;2.30;;
3341;SDS011;1684;50.748;6.154;2023-03-23T15:08:24;5.83;;;2.53;;
3341;SDS011;1684;50.748;6.154;2023-03-23T15:10:56;6.50;;;2.50;;
3341;SDS011;1684;50.748;6.154;2023-03-23T15:13:27;4.30;;;1.97;;
3341;SDS011;1684;50.748;6.154;2023-03-23T15:16:00;6.30;;;2.63;;
3341;SDS011;1684;50.748;6.154;2023-03-23T15:18:32;5.70;;;2.30;;
3341;SDS011;1684;50.748;6.154;2023-03-23T15:21:07;6.17;;;2.90;;
3341;SDS011;1684;50.748;6.154;2023-03-23T15:23:35;8.60;;;2.80;;
3341;SDS011;1684;50.748;6.154;2023-03-23T15:26:09;10.03;;;3.83;;
3341;SDS011;1684;50.748;6.154;2023-03-23T15:28:43;7.03;;;2.90;;
3341;SDS011;1684;50.748;6.154;2023-03-23T15:31:11;9.63;;;2.40;;
3341;SDS011;1684;50.748;6.154;2023-03-23T15:33:39;8.20;;;2.93;;
3341;SDS011;1684;50.748;6.154;2023-03-23T15:36:08;7.80;;;2.50;;
3341;SDS011;1684;50.748;6.154;2023-03-23T15:43:53;6.00;;;2.97;;
3341;SDS011;1684;50.748;6.154;2023-03-23T15:46:23;9.47;;;2.67;;
3341;SDS011;1684;50.748;6.154;2023-03-23T15:48:51;5.90;;;3.00;;